Time;durP1;ratioP1;P1;durP2;ratioP2;P2;SDS_P1;SDS_P2;PMS_P1;PMS_P2;Temp;Humidity;BMP_temperature;BMP_pressure;BME280_temperature;BME280_humidity;BME280_pressure;Samples;Min_cycle;Max_cycle;Signal;HPM_P1;HPM_P2
2024/04/08 00:00:32;;;;;;;;;;;;;;;16.77;47.17;101501.81;5072527;28;1082;-51
2024/04/08 00:02:57;;;;;;;;;;;;;;;16.62;46.61;101507.13;5076233;28;1196;-53
2024/04/08 00:05:23;;;;;;;;;;;;;;;16.82;46.62;101505.72;5048782;28;1827;-53
2024/04/08 00:07:49;;;;;;;;;;;;;;;17.35;47.40;101500.47;5069500;28;1917;-53
2024/04/08 00:10:15;;;;;;;;;;;;;;;17.14;47.76;101505.81;5062816;28;1043;-53
2024/04/08 00:12:43;;;;;;;;;;;;;;;18.67;46.69;101498.88;5065085;28;1110;-52
2024/04/08 00:15:09;;;;;;;;;;;;;;;17.44;48.85;101502.50;5047728;28;1009;-53
2024/04/08 00:17:35;;;;;;;;;;;;;;;17.06;48.33;101498.84;5069860;28;928;-51
2024/04/08 00:20:01;;;;;;;;;;;;;;;16.97;47.35;101494.94;5063217;28;1131;-52
2024/04/08 00:22:26;;;;;;;;;;;;;;;16.79;46.89;101498.81;5075931;28;1155;-52
2024/04/08 00:24:52;;;;;;;;;;;;;;;17.54;47.74;101509.19;5070889;28;905;-51
2024/04/08 00:27:18;;;;;;;;;;;;;;;16.86;48.19;101515.91;5062424;28;1997;-53
2024/04/08 00:29:43;;;;;;;;;;;;;;;16.89;47.43;101514.63;5076149;28;995;-54
2024/04/08 00:32:09;;;;;;;;;;;;;;;17.76;47.75;101517.34;5062671;28;1091;-52
2024/04/08 00:34:34;;;;;;;;;;;;;;;16.99;48.34;101511.16;5076101;28;1137;-50
2024/04/08 00:36:59;;;;;;;;;;;;;;;16.87;47.35;101519.50;5062707;28;2487;-53
2024/04/08 00:39:25;;;;;;;;;;;;;;;16.77;46.56;101509.22;5075782;28;1110;-52
2024/04/08 00:41:51;;;;;;;;;;;;;;;16.64;46.10;101513.19;5076221;28;1031;-52
2024/04/08 00:44:16;;;;;;;;;;;;;;;17.58;46.84;101511.13;5075185;28;1139;-55
2024/04/08 00:46:42;;;;;;;;;;;;;;;17.04;47.89;101517.53;5075792;28;2048;-54
2024/04/08 00:49:07;;;;;;;;;;;;;;;16.71;47.31;101515.75;5063024;28;1106;-53
2024/04/08 00:51:33;;;;;;;;;;;;;;;16.54;46.59;101513.06;5050958;28;1188;-54
2024/04/08 00:54:01;;;;;;;;;;;;;;;16.38;46.25;101512.88;5062353;28;1201;-54
2024/04/08 00:56:26;;;;;;;;;;;;;;;17.66;46.98;101515.34;5047010;28;1050;-53
2024/04/08 00:58:52;;;;;;;;;;;;;;;17.09;47.75;101512.06;5056125;28;1111;-52
2024/04/08 01:01:17;;;;;;;;;;;;;;;16.74;47.29;101516.03;5068894;28;1127;-54
2024/04/08 01:03:46;;;;;;;;;;;;;;;16.55;46.91;101509.22;5051740;28;1043;-55
2024/04/08 01:06:11;;;;;;;;;;;;;;;16.41;46.23;101525.22;5060977;28;1917;-53
2024/04/08 01:08:37;;;;;;;;;;;;;;;16.35;45.84;101518.84;5075342;28;1023;-53
2024/04/08 01:11:02;;;;;;;;;;;;;;;17.57;46.70;101522.41;5075287;28;1093;-54
2024/04/08 01:13:28;;;;;;;;;;;;;;;16.75;48.00;101530.63;5061463;28;1013;-54
2024/04/08 01:15:53;;;;;;;;;;;;;;;16.52;47.11;101535.28;5059906;28;1100;-52
2024/04/08 01:18:19;;;;;;;;;;;;;;;17.31;47.26;101524.94;5068754;28;1162;-54
2024/04/08 01:20:44;;;;;;;;;;;;;;;16.97;47.65;101521.56;5068440;28;1095;-52
2024/04/08 01:23:11;;;;;;;;;;;;;;;16.66;47.28;101526.66;5062675;28;1136;-50
2024/04/08 01:25:37;;;;;;;;;;;;;;;16.51;46.58;101528.13;5057052;28;893;-52
2024/04/08 01:28:02;;;;;;;;;;;;;;;17.17;46.82;101530.03;5068270;28;1974;-52
2024/04/08 01:30:28;;;;;;;;;;;;;;;17.48;47.34;101537.75;5068531;28;1016;-52
2024/04/08 01:32:54;;;;;;;;;;;;;;;16.74;47.64;101532.53;5055833;28;1072;-55
2024/04/08 01:35:19;;;;;;;;;;;;;;;16.62;46.95;101536.50;5068761;28;1903;-53
2024/04/08 01:37:45;;;;;;;;;;;;;;;17.27;47.14;101534.78;5067656;28;896;-54
2024/04/08 01:40:10;;;;;;;;;;;;;;;17.01;47.60;101529.03;5074711;28;1117;-51
2024/04/08 01:42:36;;;;;;;;;;;;;;;16.65;47.42;101535.97;5075373;28;1192;-55
2024/04/08 01:45:02;;;;;;;;;;;;;;;16.52;46.76;101539.94;5075036;28;1035;-54
2024/04/08 01:47:27;;;;;;;;;;;;;;;17.35;46.95;101539.81;5068551;28;1968;-53
2024/04/08 01:49:53;;;;;;;;;;;;;;;17.30;47.70;101534.25;5056079;28;957;-53
2024/04/08 01:52:18;;;;;;;;;;;;;;;16.80;47.42;101535.34;5048463;28;1048;-54
2024/04/08 01:54:44;;;;;;;;;;;;;;;16.62;46.93;101537.34;5075041;28;1019;-53
2024/04/08 01:57:09;;;;;;;;;;;;;;;16.82;47.13;101546.91;5068433;28;1207;-51
2024/04/08 01:59:35;;;;;;;;;;;;;;;17.30;47.48;101534.25;5055263;28;1103;-53
2024/04/08 02:02:00;;;;;;;;;;;;;;;16.80;47.44;101541.66;5067631;28;1238;-53
2024/04/08 02:04:26;;;;;;;;;;;;;;;16.63;46.93;101544.47;5066898;28;1115;-53
2024/04/08 02:06:51;;;;;;;;;;;;;;;16.89;47.21;101547.59;5063787;28;2440;-54
2024/04/08 02:09:17;;;;;;;;;;;;;;;17.27;47.56;101540.28;5066793;28;1090;-54
2024/04/08 02:11:42;;;;;;;;;;;;;;;16.77;47.36;101558.66;5076703;28;1424;-53
2024/04/08 02:14:08;;;;;;;;;;;;;;;18.08;47.01;101546.78;5074682;28;979;-53
2024/04/08 02:16:33;;;;;;;;;;;;;;;17.06;48.02;101548.31;5063564;28;1047;-51
2024/04/08 02:18:59;;;;;;;;;;;;;;;16.78;47.62;101557.56;5059161;28;1059;-52
2024/04/08 02:21:24;;;;;;;;;;;;;;;16.59;46.97;101563.38;5076967;28;1031;-54
2024/04/08 02:23:50;;;;;;;;;;;;;;;17.33;47.17;101558.47;5078889;28;1075;-55
2024/04/08 02:26:15;;;;;;;;;;;;;;;17.30;47.99;101555.44;5066502;28;1890;-53
2024/04/08 02:28:41;;;;;;;;;;;;;;;16.87;47.44;101560.69;5078356;28;1094;-53
2024/04/08 02:31:06;;;;;;;;;;;;;;;18.29;46.86;101558.75;5064517;28;1059;-54
2024/04/08 02:33:32;;;;;;;;;;;;;;;17.18;48.13;101555.56;5078111;28;991;-51
2024/04/08 02:36:03;;;;;;;;;;;;;;;16.88;47.27;101551.38;5078125;28;1833;-52
2024/04/08 02:38:29;;;;;;;;;;;;;;;17.72;47.72;101555.53;5073077;28;1463;-48
2024/04/08 02:40:54;;;;;;;;;;;;;;;17.22;47.96;101546.56;5064886;28;1127;-54
2024/04/08 02:43:20;;;;;;;;;;;;;;;16.91;47.51;101542.66;5066803;28;1111;-54
2024/04/08 02:45:46;;;;;;;;;;;;;;;16.77;46.86;101544.91;5062685;28;1004;-54
2024/04/08 02:48:13;;;;;;;;;;;;;;;17.55;46.99;101539.16;5067656;28;2214;-53
2024/04/08 02:50:39;;;;;;;;;;;;;;;17.26;48.05;101536.72;5066207;28;2061;-52
2024/04/08 02:53:04;;;;;;;;;;;;;;;16.85;47.79;101546.41;5077948;28;1070;-53
2024/04/08 02:55:30;;;;;;;;;;;;;;;17.20;47.43;101539.66;5077975;28;1078;-52
2024/04/08 02:57:55;;;;;;;;;;;;;;;17.61;47.31;101540.03;5078236;28;1085;-53
2024/04/08 03:00:21;;;;;;;;;;;;;;;16.94;47.98;101528.38;5078069;28;1130;-53
2024/04/08 03:02:46;;;;;;;;;;;;;;;16.80;47.12;101543.59;5071764;28;1186;-53
2024/04/08 03:05:12;;;;;;;;;;;;;;;16.58;46.64;101536.19;5064372;28;1171;-53
2024/04/08 03:07:38;;;;;;;;;;;;;;;18.22;46.69;101536.13;5065691;28;1913;-53
2024/04/08 03:10:04;;;;;;;;;;;;;;;17.13;47.87;101533.56;5049047;28;1143;-54
2024/04/08 03:12:30;;;;;;;;;;;;;;;16.80;47.31;101529.84;5051709;28;1005;-52
2024/04/08 03:14:56;;;;;;;;;;;;;;;16.65;46.79;101534.09;5072825;28;836;-51
2024/04/08 03:17:22;;;;;;;;;;;;;;;16.63;46.20;101533.50;5044026;28;1448;-55
2024/04/08 03:19:50;;;;;;;;;;;;;;;16.46;46.22;101539.03;5062081;28;1088;-52
2024/04/08 03:22:16;;;;;;;;;;;;;;;17.24;47.46;101533.38;5066616;28;1234;-53
2024/04/08 03:24:41;;;;;;;;;;;;;;;16.70;47.31;101545.09;5075328;28;1151;-54
2024/04/08 03:27:07;;;;;;;;;;;;;;;17.28;47.44;101539.22;5070107;28;1918;-52
2024/04/08 03:29:32;;;;;;;;;;;;;;;17.07;47.90;101536.25;5077168;28;1063;-53
2024/04/08 03:31:58;;;;;;;;;;;;;;;16.65;47.94;101538.72;5066664;28;1186;-52
2024/04/08 03:34:23;;;;;;;;;;;;;;;17.91;47.34;101533.19;5049799;28;1173;-54
2024/04/08 03:36:49;;;;;;;;;;;;;;;17.12;47.90;101534.63;5037303;28;1254;-52
2024/04/08 03:39:15;;;;;;;;;;;;;;;17.00;47.69;101529.28;5041599;28;1270;-52
2024/04/08 03:41:40;;;;;;;;;;;;;;;17.72;47.66;101525.28;5039051;28;1274;-50
2024/04/08 03:44:07;;;;;;;;;;;;;;;17.26;48.38;101538.63;5044591;28;1235;-53
2024/04/08 03:46:33;;;;;;;;;;;;;;;18.89;46.49;101544.72;5037485;28;1909;-49
2024/04/08 03:48:58;;;;;;;;;;;;;;;15.05;55.06;101542.50;5039139;28;1009;-50
2024/04/08 03:51:24;;;;;;;;;;;;;;;17.97;49.91;101545.88;5041193;28;1017;-52
2024/04/08 03:53:49;;;;;;;;;;;;;;;18.43;48.81;101548.09;5050332;28;1263;-48
2024/04/08 03:56:15;;;;;;;;;;;;;;;14.98;56.87;101552.75;5048625;28;1208;-56
2024/04/08 03:58:40;;;;;;;;;;;;;;;16.68;51.97;101554.72;5048191;28;1202;-53
2024/04/08 04:01:07;;;;;;;;;;;;;;;17.26;51.27;101549.63;5065762;28;1119;-51
2024/04/08 04:03:34;;;;;;;;;;;;;;;16.85;50.19;101558.22;5050699;28;1247;-54
2024/04/08 04:05:59;;;;;;;;;;;;;;;16.73;49.17;101552.84;5059194;28;1064;-52
2024/04/08 04:08:25;;;;;;;;;;;;;;;17.83;47.67;101556.47;5054991;28;1910;-55
2024/04/08 04:10:50;;;;;;;;;;;;;;;17.35;48.78;101561.81;5049341;28;1163;-54
2024/04/08 04:14:36;;;;;;;;;;;;;;;16.98;49.89;101557.00;5458864;25;1354384;-54
2024/04/08 04:17:02;;;;;;;;;;;;;;;16.79;50.06;101564.75;5451315;26;1338;-50
2024/04/08 04:19:27;;;;;;;;;;;;;;;16.65;50.57;101561.53;5475976;26;1276;-53
2024/04/08 04:21:52;;;;;;;;;;;;;;;16.52;50.96;101567.38;5475447;26;1183;-53
2024/04/08 04:24:18;;;;;;;;;;;;;;;16.45;51.00;101566.75;5475582;26;1273;-54
2024/04/08 04:26:43;;;;;;;;;;;;;;;16.33;51.22;101570.44;5474951;26;1239;-49
2024/04/08 04:29:09;;;;;;;;;;;;;;;16.17;51.48;101568.53;5475830;26;1316;-51
2024/04/08 04:31:41;;;;;;;;;;;;;;;16.11;51.73;101566.81;5475644;26;1187;-51
2024/04/08 04:34:07;;;;;;;;;;;;;;;16.05;51.91;101566.72;5475326;26;1834;-51
2024/04/08 04:36:32;;;;;;;;;;;;;;;15.92;51.95;101561.56;5474859;26;1170;-51
2024/04/08 04:38:58;;;;;;;;;;;;;;;17.40;48.88;101564.63;5474820;26;1195;-52
2024/04/08 04:41:24;;;;;;;;;;;;;;;17.32;48.96;101561.50;5475365;26;1199;-51
2024/04/08 04:43:49;;;;;;;;;;;;;;;16.68;50.55;101572.00;5475346;26;1291;-50
2024/04/08 04:46:15;;;;;;;;;;;;;;;16.47;51.07;101578.31;5475244;26;1190;-51
2024/04/08 04:48:40;;;;;;;;;;;;;;;16.24;51.64;101580.16;5474941;26;1158;-53
2024/04/08 04:51:06;;;;;;;;;;;;;;;16.13;51.80;101579.22;5474642;26;1062;-54
2024/04/08 04:53:31;;;;;;;;;;;;;;;16.50;51.24;101583.31;5475523;26;1816;-54
2024/04/08 04:55:57;;;;;;;;;;;;;;;17.72;48.07;101580.28;5475024;26;1289;-51
2024/04/08 04:58:22;;;;;;;;;;;;;;;16.81;50.24;101579.03;5475000;26;1166;-51
2024/04/08 05:00:48;;;;;;;;;;;;;;;16.41;51.17;101597.47;5471751;26;1392;-53
2024/04/08 05:03:14;;;;;;;;;;;;;;;16.24;51.66;101583.75;5468880;26;1624;-52
2024/04/08 05:05:39;;;;;;;;;;;;;;;16.17;51.94;101590.50;5489433;26;1563;-52
2024/04/08 05:08:05;;;;;;;;;;;;;;;16.40;51.50;101582.06;5475741;26;1170;-52
2024/04/08 05:10:31;;;;;;;;;;;;;;;17.73;48.04;101573.72;5460151;26;1259;-55
2024/04/08 05:12:56;;;;;;;;;;;;;;;16.86;50.23;101570.03;5474723;26;1868;-54
2024/04/08 05:15:22;;;;;;;;;;;;;;;16.48;51.08;101566.22;5474486;26;1034;-54
2024/04/08 05:17:47;;;;;;;;;;;;;;;16.29;51.64;101572.03;5474347;26;1017;-53
2024/04/08 05:20:14;;;;;;;;;;;;;;;16.15;51.84;101571.53;5475241;26;1183;-53
2024/04/08 05:22:46;;;;;;;;;;;;;;;16.12;52.39;101565.72;5474553;26;1139;-52
2024/04/08 05:25:12;;;;;;;;;;;;;;;17.69;48.38;101567.06;5463470;26;1357;-54
2024/04/08 05:27:37;;;;;;;;;;;;;;;16.98;49.86;101572.69;5458690;26;1232;-52
2024/04/08 05:30:03;;;;;;;;;;;;;;;16.54;51.10;101574.28;5459043;26;1269;-50
2024/04/08 05:32:28;;;;;;;;;;;;;;;16.31;51.70;101580.81;5458855;26;1822;-54
2024/04/08 05:34:54;;;;;;;;;;;;;;;16.40;51.66;101576.56;5459029;26;1358;-52
2024/04/08 05:37:20;;;;;;;;;;;;;;;17.86;47.94;101571.63;5458772;26;1282;-51
2024/04/08 05:39:45;;;;;;;;;;;;;;;17.04;49.85;101574.38;5458655;26;1082;-52
2024/04/08 05:42:11;;;;;;;;;;;;;;;16.57;51.25;101573.78;5458903;26;1239;-47
2024/04/08 05:44:36;;;;;;;;;;;;;;;16.36;51.54;101561.69;5459072;26;1337;-54
2024/04/08 05:47:02;;;;;;;;;;;;;;;16.20;51.88;101566.13;5459055;26;1309;-51
2024/04/08 05:49:27;;;;;;;;;;;;;;;16.64;51.23;101568.09;5458392;26;1153;-52
2024/04/08 05:51:53;;;;;;;;;;;;;;;17.78;48.21;101564.66;5458432;26;1196;-53
2024/04/08 05:54:18;;;;;;;;;;;;;;;16.90;50.16;101560.19;5458895;26;1841;-51
2024/04/08 05:56:43;;;;;;;;;;;;;;;16.54;51.25;101565.25;5458673;26;1175;-53
2024/04/08 05:59:09;;;;;;;;;;;;;;;16.32;51.83;101570.69;5458414;26;1203;-53
2024/04/08 06:01:35;;;;;;;;;;;;;;;16.16;52.17;101573.22;5458193;26;1289;-51
2024/04/08 06:04:01;;;;;;;;;;;;;;;16.19;52.34;101574.63;5458000;26;1144;-54
2024/04/08 06:06:26;;;;;;;;;;;;;;;17.68;48.71;101576.41;5468493;26;1285;-52
2024/04/08 06:09:00;;;;;;;;;;;;;;;17.08;49.92;101578.28;5458155;26;1377;-53
2024/04/08 06:11:26;;;;;;;;;;;;;;;16.64;51.35;101575.53;5458786;26;1245;-54
2024/04/08 06:13:51;;;;;;;;;;;;;;;16.44;51.67;101576.91;5459048;26;1851;-52
2024/04/08 06:16:17;;;;;;;;;;;;;;;16.22;52.40;101582.34;5458071;26;1147;-53
2024/04/08 06:18:42;;;;;;;;;;;;;;;16.19;52.27;101582.84;5458509;26;1297;-54
2024/04/08 06:21:08;;;;;;;;;;;;;;;16.48;51.97;101586.31;5458416;26;1353;-52
2024/04/08 06:23:33;;;;;;;;;;;;;;;17.85;48.41;101581.81;5458391;26;1323;-50
2024/04/08 06:25:59;;;;;;;;;;;;;;;16.96;50.46;101586.66;5442683;26;1654;-51
2024/04/08 06:28:25;;;;;;;;;;;;;;;16.54;51.68;101589.94;5453991;26;1110;-53
2024/04/08 06:30:50;;;;;;;;;;;;;;;16.42;52.05;101599.13;5457649;26;1567;-50
2024/04/08 06:33:16;;;;;;;;;;;;;;;16.23;52.53;101589.50;5457807;26;1822;-51
2024/04/08 06:35:44;;;;;;;;;;;;;;;16.12;52.85;101596.75;5458315;26;1304;-49
2024/04/08 06:38:10;;;;;;;;;;;;;;;17.71;48.98;101592.41;5454055;26;1265;-53
2024/04/08 06:40:36;;;;;;;;;;;;;;;17.03;50.58;101587.31;5457618;26;991;-55
2024/04/08 06:43:01;;;;;;;;;;;;;;;16.63;51.46;101599.38;5458282;26;1218;-54
2024/04/08 06:45:27;;;;;;;;;;;;;;;16.39;52.00;101591.38;5458931;26;1160;-53
2024/04/08 06:47:53;;;;;;;;;;;;;;;16.26;52.36;101597.22;5457628;26;1190;-50
2024/04/08 06:50:18;;;;;;;;;;;;;;;16.91;51.17;101600.34;5457282;26;1192;-52
2024/04/08 06:52:44;;;;;;;;;;;;;;;17.81;48.70;101599.06;5441224;26;1861;-49
2024/04/08 06:55:09;;;;;;;;;;;;;;;16.89;50.98;101597.03;5447853;26;1564;-53
2024/04/08 06:57:35;;;;;;;;;;;;;;;16.65;51.58;101605.47;5454166;26;1084;-53
2024/04/08 07:00:00;;;;;;;;;;;;;;;16.45;52.22;101603.25;5457507;26;1341;-52
2024/04/08 07:02:26;;;;;;;;;;;;;;;16.26;52.56;101597.22;5454206;26;1171;-48
2024/04/08 07:04:52;;;;;;;;;;;;;;;16.19;52.72;101607.56;5457089;26;1154;-50
2024/04/08 07:07:17;;;;;;;;;;;;;;;16.57;51.97;101605.91;5458173;26;1175;-51
2024/04/08 07:09:43;;;;;;;;;;;;;;;17.82;49.03;101611.75;5455133;26;1461;-47
2024/04/08 07:12:08;;;;;;;;;;;;;;;16.96;51.01;101608.66;5440826;26;1783;-53
2024/04/08 07:14:34;;;;;;;;;;;;;;;16.54;52.07;101609.16;5458535;26;1869;-53
2024/04/08 07:16:59;;;;;;;;;;;;;;;16.41;52.39;101602.09;5456958;26;1045;-53
2024/04/08 07:19:25;;;;;;;;;;;;;;;16.19;53.00;101604.81;5457609;26;1139;-46
2024/04/08 07:21:50;;;;;;;;;;;;;;;16.86;51.57;101605.75;5457539;26;1269;-52
2024/04/08 07:24:16;;;;;;;;;;;;;;;17.69;49.24;101604.75;5453029;26;1630;-46
2024/04/08 07:26:42;;;;;;;;;;;;;;;16.90;51.12;101601.41;5457324;26;1250;-52
2024/04/08 07:29:07;;;;;;;;;;;;;;;16.67;51.84;101606.03;5457135;26;1074;-50
2024/04/08 07:31:33;;;;;;;;;;;;;;;16.42;52.42;101610.09;5451426;26;1496;-51
2024/04/08 07:33:58;;;;;;;;;;;;;;;16.28;52.78;101606.03;5471722;26;2361;-52
2024/04/08 07:36:24;;;;;;;;;;;;;;;16.18;52.98;101598.47;5457298;26;1165;-52
2024/04/08 07:38:49;;;;;;;;;;;;;;;17.47;50.05;101602.06;5457125;26;1214;-50
2024/04/08 07:41:15;;;;;;;;;;;;;;;17.31;50.14;101614.84;5456669;26;1521;-52
2024/04/08 07:43:41;;;;;;;;;;;;;;;16.69;51.97;101612.13;5453684;26;1473;-54
2024/04/08 07:46:07;;;;;;;;;;;;;;;16.51;52.38;101617.88;5430111;26;1250;-49
2024/04/08 07:48:32;;;;;;;;;;;;;;;16.35;52.57;101612.16;5454588;26;1266;-53
2024/04/08 07:50:58;;;;;;;;;;;;;;;16.20;52.90;101611.94;5456833;26;1178;-52
2024/04/08 07:53:23;;;;;;;;;;;;;;;16.20;53.11;101611.94;5456454;26;1822;-50
2024/04/08 07:55:49;;;;;;;;;;;;;;;17.64;49.70;101613.78;5456671;26;1171;-53
2024/04/08 07:58:14;;;;;;;;;;;;;;;17.27;50.44;101620.00;5456535;26;1167;-53
2024/04/08 08:00:40;;;;;;;;;;;;;;;16.72;52.04;101617.09;5456620;26;1257;-56
2024/04/08 08:03:05;;;;;;;;;;;;;;;16.51;52.46;101613.25;5456575;26;1272;-54
2024/04/08 08:05:31;;;;;;;;;;;;;;;16.35;52.87;101620.41;5456124;26;1060;-52
2024/04/08 08:07:57;;;;;;;;;;;;;;;16.17;53.30;101620.69;5456220;26;1179;-46
2024/04/08 08:10:23;;;;;;;;;;;;;;;16.15;53.35;101620.09;5456904;26;1187;-49
2024/04/08 08:12:48;;;;;;;;;;;;;;;17.50;50.35;101618.03;5456686;26;1849;-53
2024/04/08 08:15:15;;;;;;;;;;;;;;;17.40;50.17;101613.25;5449593;26;1564;-49
2024/04/08 08:17:40;;;;;;;;;;;;;;;16.76;51.94;101626.50;5453361;26;1210;-51
2024/04/08 08:20:06;;;;;;;;;;;;;;;16.53;52.58;101621.22;5462291;26;1345;-52
2024/04/08 08:22:32;;;;;;;;;;;;;;;16.35;52.96;101616.84;5448054;26;1320;-49
2024/04/08 08:24:57;;;;;;;;;;;;;;;16.22;53.15;101616.09;5453846;26;1531;-50
2024/04/08 08:27:23;;;;;;;;;;;;;;;16.65;52.58;101608.22;5447415;26;1127;-53
2024/04/08 08:29:52;;;;;;;;;;;;;;;17.82;49.37;101615.31;5453036;26;1200;-54
2024/04/08 08:32:17;;;;;;;;;;;;;;;16.96;51.65;101624.28;5462325;26;3113;-55
2024/04/08 08:34:43;;;;;;;;;;;;;;;16.60;52.59;101616.38;5455231;26;2163;-52
2024/04/08 08:37:09;;;;;;;;;;;;;;;16.45;52.90;101618.91;5455344;26;2291;-54
2024/04/08 08:39:37;;;;;;;;;;;;;;;16.32;53.18;101615.44;5455003;26;2260;-54
2024/04/08 08:42:14;;;;;;;;;;;;;;;16.68;52.52;101617.88;5436203;26;2311;-55
2024/04/08 08:44:39;;;;;;;;;;;;;;;17.60;49.99;101613.47;5455450;26;2382;-53
2024/04/08 08:47:05;;;;;;;;;;;;;;;16.85;52.11;101617.81;5453160;26;1167;-50
2024/04/08 08:49:30;;;;;;;;;;;;;;;16.48;52.93;101622.00;5455374;26;1230;-50
2024/04/08 08:51:56;;;;;;;;;;;;;;;16.40;53.20;101606.75;5452905;26;1171;-52
2024/04/08 08:54:21;;;;;;;;;;;;;;;16.24;53.30;101608.47;5455209;26;1822;-50
2024/04/08 08:56:47;;;;;;;;;;;;;;;16.20;53.67;101609.19;5451854;26;1540;-52
2024/04/08 08:59:13;;;;;;;;;;;;;;;16.64;52.69;101609.28;5449641;26;1291;-50
2024/04/08 09:01:38;;;;;;;;;;;;;;;17.73;49.86;101603.16;5450773;26;1310;-54
2024/04/08 09:04:04;;;;;;;;;;;;;;;16.87;52.01;101596.41;5462195;26;1447;-52
2024/04/08 09:06:30;;;;;;;;;;;;;;;16.52;53.00;101600.34;5458788;26;1237;-49
2024/04/08 09:08:55;;;;;;;;;;;;;;;16.39;53.19;101596.88;5458691;26;1265;-49
2024/04/08 09:11:21;;;;;;;;;;;;;;;16.28;53.28;101592.31;5455455;26;1545;-52
2024/04/08 09:13:49;;;;;;;;;;;;;;;16.15;53.72;101598.97;5464774;26;2871;-52
2024/04/08 09:16:21;;;;;;;;;;;;;;;16.87;52.26;101593.66;5456935;26;1302;-53
2024/04/08 09:18:47;;;;;;;;;;;;;;;17.69;49.96;101589.06;5458826;26;1251;-48
2024/04/08 09:21:12;;;;;;;;;;;;;;;16.92;51.97;101591.00;5458943;26;1130;-52
2024/04/08 09:23:42;;;;;;;;;;;;;;;16.57;52.79;101594.94;5437572;26;1378;-54
2024/04/08 09:26:08;;;;;;;;;;;;;;;16.39;53.26;101588.63;5458367;26;1252;-55
2024/04/08 09:28:33;;;;;;;;;;;;;;;16.18;53.75;101582.00;5436883;26;1279;-52
2024/04/08 09:30:59;;;;;;;;;;;;;;;16.39;53.55;101588.63;5458339;26;1251;-53
2024/04/08 09:33:24;;;;;;;;;;;;;;;17.82;49.92;101578.72;5458410;26;1829;-50
2024/04/08 09:35:50;;;;;;;;;;;;;;;17.03;51.73;101578.25;5431694;26;1285;-51
2024/04/08 09:38:15;;;;;;;;;;;;;;;16.67;52.74;101578.56;5439304;26;1108;-54
2024/04/08 09:40:41;;;;;;;;;;;;;;;16.42;53.41;101574.41;5458342;26;1294;-54
2024/04/08 09:43:07;;;;;;;;;;;;;;;16.31;53.33;101572.59;5444760;26;1377;-53
2024/04/08 09:45:35;;;;;;;;;;;;;;;16.22;53.82;101561.22;5458058;26;1238;-52
2024/04/08 09:48:01;;;;;;;;;;;;;;;16.03;54.09;101574.38;5458570;26;1254;-53
2024/04/08 09:50:27;;;;;;;;;;;;;;;16.37;53.58;101568.84;5458723;26;1281;-52
2024/04/08 09:52:52;;;;;;;;;;;;;;;17.79;50.11;101561.69;5458009;26;1869;-52
2024/04/08 09:55:18;;;;;;;;;;;;;;;17.03;51.85;101564.50;5458840;26;1345;-52
2024/04/08 09:57:44;;;;;;;;;;;;;;;16.67;52.78;101561.28;5416930;26;1831;-53
2024/04/08 10:00:14;;;;;;;;;;;;;;;16.43;53.36;101564.25;5454468;26;1171;-53
2024/04/08 10:02:41;;;;;;;;;;;;;;;16.31;53.65;101561.59;5456902;26;1205;-51
2024/04/08 10:05:06;;;;;;;;;;;;;;;16.52;53.46;101556.41;5453864;26;1331;-53
2024/04/08 10:07:32;;;;;;;;;;;;;;;17.81;50.09;101557.81;5442063;26;1480;-49
2024/04/08 10:09:58;;;;;;;;;;;;;;;16.95;52.09;101552.03;5444450;26;1288;-52
2024/04/08 10:12:30;;;;;;;;;;;;;;;16.62;52.85;101542.84;5426815;26;1842;-52
2024/04/08 10:14:55;;;;;;;;;;;;;;;16.45;53.43;101542.03;5461986;26;1258;-53
2024/04/08 10:17:21;;;;;;;;;;;;;;;16.38;53.48;101542.22;5462169;26;1488;-51
2024/04/08 10:19:46;;;;;;;;;;;;;;;16.17;54.05;101541.09;5458304;26;1326;-51
2024/04/08 10:22:15;;;;;;;;;;;;;;;16.13;53.93;101545.44;5458396;26;1589;-53
2024/04/08 10:24:41;;;;;;;;;;;;;;;17.15;51.94;101534.13;5470048;26;1183;-49
2024/04/08 10:27:07;;;;;;;;;;;;;;;17.63;50.47;101532.38;5467760;26;1171;-56
2024/04/08 10:29:34;;;;;;;;;;;;;;;16.90;52.30;101528.09;5457153;26;1038;-48
2024/04/08 10:31:59;;;;;;;;;;;;;;;16.53;53.39;101533.38;5458169;26;1342;-55
2024/04/08 10:34:25;;;;;;;;;;;;;;;16.47;53.40;101531.66;5458150;26;1822;-55
2024/04/08 10:36:51;;;;;;;;;;;;;;;16.33;53.57;101529.25;5457344;26;1167;-48
2024/04/08 10:39:17;;;;;;;;;;;;;;;16.24;53.67;101525.28;5447885;26;1334;-52
2024/04/08 10:41:42;;;;;;;;;;;;;;;17.17;51.90;101532.78;5457488;26;1332;-55
2024/04/08 10:44:09;;;;;;;;;;;;;;;17.63;50.38;101529.63;5445275;26;1815;-54
2024/04/08 10:46:34;;;;;;;;;;;;;;;16.90;52.30;101525.34;5435055;26;1574;-50
2024/04/08 10:48:59;;;;;;;;;;;;;;;16.60;53.22;101531.25;5457457;26;1357;-51
2024/04/08 10:51:25;;;;;;;;;;;;;;;16.47;53.51;101517.94;5454973;26;1233;-49
2024/04/08 10:53:51;;;;;;;;;;;;;;;16.37;53.69;101522.19;5457218;26;1822;-47
2024/04/08 10:56:17;;;;;;;;;;;;;;;16.18;54.04;101520.81;5457774;26;1374;-51
2024/04/08 10:58:42;;;;;;;;;;;;;;;17.05;52.27;101526.59;5457633;26;1135;-52
2024/04/08 11:01:08;;;;;;;;;;;;;;;17.60;50.56;101513.66;5457293;26;1242;-52
2024/04/08 11:03:34;;;;;;;;;;;;;;;16.87;52.46;101511.25;5457820;26;1191;-53
2024/04/08 11:05:59;;;;;;;;;;;;;;;16.53;53.31;101516.91;5456613;26;1313;-52
2024/04/08 11:08:25;;;;;;;;;;;;;;;16.35;53.71;101510.63;5457508;26;1202;-52
2024/04/08 11:10:52;;;;;;;;;;;;;;;16.32;53.80;101508.38;5455691;26;1355;-54
2024/04/08 11:13:18;;;;;;;;;;;;;;;16.12;54.13;101499.88;5457406;26;1853;-54
2024/04/08 11:15:47;;;;;;;;;;;;;;;16.13;54.18;101494.16;5445119;26;1623;-55
2024/04/08 11:18:12;;;;;;;;;;;;;;;17.61;50.84;101501.53;5438353;26;1253;-54
2024/04/08 11:20:38;;;;;;;;;;;;;;;17.19;51.70;101496.78;5451333;26;1079;-52
2024/04/08 11:23:04;;;;;;;;;;;;;;;16.74;52.98;101496.81;5430886;26;1284;-51
2024/04/08 11:25:29;;;;;;;;;;;;;;;16.43;53.65;101507.44;5457322;26;1309;-51
2024/04/08 11:27:55;;;;;;;;;;;;;;;16.33;53.86;101501.00;5449317;26;1282;-51
2024/04/08 11:30:20;;;;;;;;;;;;;;;16.19;54.05;101490.38;5428090;26;1282;-49
2024/04/08 11:32:46;;;;;;;;;;;;;;;16.11;54.26;101482.59;5456557;26;1825;-56
2024/04/08 11:35:12;;;;;;;;;;;;;;;16.82;53.01;101476.31;5450000;26;1533;-53
2024/04/08 11:37:37;;;;;;;;;;;;;;;17.84;50.19;101480.25;5464312;26;1554;-51
2024/04/08 11:40:06;;;;;;;;;;;;;;;16.90;52.67;101481.38;5445827;26;1281;-55
2024/04/08 11:42:32;;;;;;;;;;;;;;;16.70;53.19;101473.69;5456400;26;1162;-48
2024/04/08 11:44:58;;;;;;;;;;;;;;;16.51;53.40;101465.00;5456888;26;1266;-51
2024/04/08 11:47:23;;;;;;;;;;;;;;;16.30;53.89;101466.66;5456892;26;1235;-52
2024/04/08 11:49:49;;;;;;;;;;;;;;;16.26;53.85;101462.75;5456361;26;1270;-50
2024/04/08 11:52:14;;;;;;;;;;;;;;;17.31;51.86;101469.97;5451415;26;1538;-54
2024/04/08 11:54:42;;;;;;;;;;;;;;;17.41;51.23;101461.78;5438860;26;1853;-52
2024/04/08 11:57:08;;;;;;;;;;;;;;;16.88;52.70;101458.81;5432782;26;1325;-49
2024/04/08 11:59:34;;;;;;;;;;;;;;;16.52;53.49;101444.69;5456844;26;1166;-50
2024/04/08 12:01:59;;;;;;;;;;;;;;;16.40;53.93;101444.00;5456356;26;1191;-51
2024/04/08 12:04:25;;;;;;;;;;;;;;;16.26;54.00;101451.78;5456776;26;1280;-51
2024/04/08 12:06:50;;;;;;;;;;;;;;;16.20;54.08;101447.28;5451849;26;1541;-49
2024/04/08 12:09:16;;;;;;;;;;;;;;;17.07;52.56;101455.75;5466566;26;1356;-53
2024/04/08 12:11:42;;;;;;;;;;;;;;;17.81;50.29;101443.13;5440016;26;1248;-51
2024/04/08 12:14:08;;;;;;;;;;;;;;;16.95;52.59;101442.13;5455839;26;1857;-50
2024/04/08 12:16:33;;;;;;;;;;;;;;;16.62;53.43;101454.97;5456271;26;1207;-51
2024/04/08 12:19:00;;;;;;;;;;;;;;;16.51;53.62;101450.41;5456313;26;983;-50
2024/04/08 12:21:26;;;;;;;;;;;;;;;16.39;53.89;101445.91;5456095;26;1181;-51
2024/04/08 12:23:53;;;;;;;;;;;;;;;16.22;54.15;101445.16;5456012;26;1275;-51
2024/04/08 12:26:19;;;;;;;;;;;;;;;17.04;52.65;101435.09;5456256;26;1267;-46
2024/04/08 12:28:44;;;;;;;;;;;;;;;17.64;50.77;101432.25;5455977;26;1178;-47
2024/04/08 12:31:10;;;;;;;;;;;;;;;16.95;52.61;101431.16;5456354;26;1229;-53
2024/04/08 12:33:35;;;;;;;;;;;;;;;16.67;53.20;101435.78;5456744;26;1815;-53
2024/04/08 12:36:01;;;;;;;;;;;;;;;16.49;53.59;101425.97;5459481;26;1428;-51
2024/04/08 12:38:26;;;;;;;;;;;;;;;16.32;54.03;101427.97;5460044;26;1352;-52
2024/04/08 12:40:52;;;;;;;;;;;;;;;16.25;54.14;101418.00;5459481;26;1179;-51